createdAt,value
2022-12-12T00:03:48.433Z,100080.94
2022-12-12T00:07:50.034Z,100079.28
2022-12-12T00:11:51.612Z,100074.16
2022-12-12T00:15:53.183Z,100075.88
2022-12-12T00:19:54.862Z,100079.97
2022-12-12T00:23:57.430Z,100084.94
2022-12-12T00:28:00.403Z,100078.34
2022-12-12T00:32:01.937Z,100077.44
2022-12-12T00:36:03.873Z,100075.03
2022-12-12T00:40:06.331Z,100084.25
2022-12-12T00:44:07.910Z,100083.09
2022-12-12T00:48:09.479Z,100088.13
2022-12-12T00:52:11.111Z,100080.63
2022-12-12T00:56:15.211Z,100076.25
2022-12-12T01:00:17.454Z,100081.13
2022-12-12T01:04:19.122Z,100079.09
2022-12-12T01:08:20.774Z,100087.25
2022-12-12T01:12:22.339Z,100082.56
2022-12-12T01:16:24.615Z,100088.38
2022-12-12T01:20:27.800Z,100095.34
2022-12-12T01:24:29.372Z,100098.69
2022-12-12T01:28:31.198Z,100098.63
2022-12-12T01:32:32.718Z,100104.53
2022-12-12T01:36:34.416Z,100113.78
2022-12-12T01:40:36.026Z,100112.50
2022-12-12T01:44:43.068Z,100114.81
2022-12-12T01:48:50.926Z,100118.66
2022-12-12T01:52:52.602Z,100120.88
2022-12-12T01:56:56.387Z,100119.00
2022-12-12T02:00:57.938Z,100123.09
2022-12-12T02:05:04.916Z,100121.91
2022-12-12T02:09:10.202Z,100125.84
2022-12-12T02:13:16.093Z,100132.97
2022-12-12T02:17:36.707Z,100116.66
2022-12-12T02:21:52.615Z,100122.91
2022-12-12T02:26:12.782Z,100125.91
2022-12-12T02:30:21.079Z,100124.69
2022-12-12T02:34:25.320Z,100120.22
2022-12-12T02:38:43.696Z,100113.13
2022-12-12T02:43:12.942Z,100126.38
2022-12-12T02:47:31.385Z,100114.22
2022-12-12T02:51:34.450Z,100116.63
2022-12-12T02:55:36.709Z,100120.78
2022-12-12T02:59:41.883Z,100121.56
2022-12-12T03:04:19.580Z,100122.97
2022-12-12T03:08:36.066Z,100114.31
2022-12-12T03:12:49.221Z,100103.25
2022-12-12T03:17:21.835Z,100112.03
2022-12-12T03:21:46.769Z,100107.84
2022-12-12T03:26:00.538Z,100109.72
2022-12-12T03:30:08.570Z,100105.34
2022-12-12T03:34:17.729Z,100105.91
2022-12-12T03:38:24.688Z,100104.81
2022-12-12T03:42:40.889Z,100107.09
2022-12-12T03:46:49.145Z,100121.31
2022-12-12T03:50:55.253Z,100115.44
2022-12-12T03:55:24.243Z,100129.53
2022-12-12T03:59:38.593Z,100145.50
2022-12-12T04:03:57.761Z,100139.81
2022-12-12T04:08:11.406Z,100148.25
2022-12-12T04:12:56.676Z,100143.56
2022-12-12T04:17:03.408Z,100141.91
2022-12-12T04:21:37.053Z,100138.63
2022-12-12T04:26:26.533Z,100134.03
2022-12-12T04:30:29.829Z,100142.88
2022-12-12T04:34:39.250Z,100144.00
2022-12-12T04:38:42.762Z,100151.75
2022-12-12T04:42:50.849Z,100157.00
2022-12-12T04:46:55.766Z,100156.34
2022-12-12T04:51:00.110Z,100164.97
2022-12-12T04:55:19.197Z,100159.94
2022-12-12T04:59:20.894Z,100159.28
2022-12-12T05:03:39.781Z,100160.38
2022-12-12T05:07:44.321Z,100164.88
2022-12-12T05:11:46.103Z,100165.97
2022-12-12T05:15:50.684Z,100172.84
2022-12-12T05:19:52.238Z,100168.91
2022-12-12T05:23:54.101Z,100170.69
2022-12-12T05:27:55.793Z,100170.00
2022-12-12T05:31:57.446Z,100167.81
2022-12-12T05:35:59.123Z,100173.19
2022-12-12T05:40:00.699Z,100184.47
2022-12-12T05:44:02.342Z,100180.50
2022-12-12T05:48:03.956Z,100173.16
2022-12-12T05:52:05.643Z,100172.28
2022-12-12T05:56:08.800Z,100177.31
2022-12-12T06:00:10.883Z,100176.53
2022-12-12T06:04:12.625Z,100179.84
2022-12-12T06:08:14.544Z,100180.59
2022-12-12T06:12:16.123Z,100182.38
2022-12-12T06:16:19.377Z,100181.50
2022-12-12T06:20:21.015Z,100174.47
2022-12-12T06:24:22.837Z,100183.34
2022-12-12T06:28:24.367Z,100189.97
2022-12-12T06:32:26.113Z,100201.78
2022-12-12T06:36:27.642Z,100200.03
2022-12-12T06:40:29.195Z,100204.50
2022-12-12T06:44:32.740Z,100206.47
2022-12-12T06:48:35.177Z,100210.94
2022-12-12T06:52:36.761Z,100209.31
2022-12-12T06:56:42.028Z,100210.09
2022-12-12T07:00:51.247Z,100220.91
2022-12-12T07:04:52.850Z,100225.22
2022-12-12T07:08:55.142Z,100231.97
2022-12-12T07:12:57.700Z,100231.97
2022-12-12T07:16:59.355Z,100227.81
2022-12-12T07:21:05.218Z,100248.75
2022-12-12T07:25:08.498Z,100242.06
2022-12-12T07:29:10.904Z,100254.44
2022-12-12T07:33:14.272Z,100251.94
2022-12-12T07:37:15.871Z,100261.56
2022-12-12T07:41:20.362Z,100263.63
2022-12-12T07:45:23.114Z,100264.63
2022-12-12T07:49:25.135Z,100263.09
2022-12-12T07:53:27.710Z,100273.41
2022-12-12T07:57:29.866Z,100262.97
2022-12-12T08:01:31.654Z,100265.41
2022-12-12T08:05:33.369Z,100281.50
2022-12-12T08:09:36.392Z,100290.19
2022-12-12T08:13:38.878Z,100284.56
2022-12-12T08:17:40.486Z,100285.00
2022-12-12T08:21:42.905Z,100285.09
2022-12-12T08:25:44.418Z,100289.72
2022-12-12T08:29:46.000Z,100296.50
2022-12-12T08:33:53.309Z,100293.44
2022-12-12T08:37:55.058Z,100300.53
2022-12-12T08:41:56.710Z,100302.03
2022-12-12T08:46:02.255Z,100310.94
2022-12-12T08:50:04.925Z,100300.94
2022-12-12T08:54:07.175Z,100312.22
2022-12-12T08:58:08.760Z,100309.13
2022-12-12T09:02:13.003Z,100307.72
2022-12-12T09:06:15.404Z,100313.50
2022-12-12T09:10:17.392Z,100315.63
2022-12-12T09:14:18.956Z,100321.06
2022-12-12T09:18:20.632Z,100314.72
2022-12-12T09:22:22.184Z,100326.13
2022-12-12T09:26:23.930Z,100325.56
2022-12-12T09:30:25.536Z,100323.25
2022-12-12T09:34:27.090Z,100325.25
2022-12-12T09:38:28.840Z,100323.91
2022-12-12T09:42:33.151Z,100326.44
2022-12-12T09:46:40.214Z,100315.63
2022-12-12T09:50:46.282Z,100323.00
2022-12-12T09:54:47.960Z,100317.88
2022-12-12T09:58:58.417Z,100310.50
2022-12-12T10:03:14.839Z,100315.91
2022-12-12T10:07:22.914Z,100310.06
2022-12-12T10:11:54.558Z,100311.09
2022-12-12T10:15:59.591Z,100304.91
2022-12-12T10:20:08.340Z,100305.56
2022-12-12T10:24:32.678Z,100303.81
2022-12-12T10:28:35.320Z,100312.03
2022-12-12T10:32:54.341Z,100320.91
2022-12-12T10:37:14.517Z,100312.88
2022-12-12T10:41:44.100Z,100309.03
2022-12-12T10:46:07.255Z,100317.47
2022-12-12T10:50:13.399Z,100304.88
2022-12-12T10:54:22.034Z,100304.19
2022-12-12T10:58:32.237Z,100309.25
2022-12-12T11:02:39.069Z,100308.47
2022-12-12T11:06:47.067Z,100306.38
2022-12-12T11:11:01.389Z,100301.44
2022-12-12T11:15:13.351Z,100296.28
2022-12-12T11:19:21.408Z,100284.22
2022-12-12T11:23:26.848Z,100281.16
2022-12-12T11:27:32.992Z,100285.59
2022-12-12T11:31:35.439Z,100296.91
2022-12-12T11:35:47.504Z,100289.84
2022-12-12T11:39:51.833Z,100290.00
2022-12-12T11:43:58.040Z,100287.66
2022-12-12T11:47:59.678Z,100277.47
2022-12-12T11:52:18.378Z,100272.75
2022-12-12T11:56:47.962Z,100282.53
2022-12-12T12:01:00.186Z,100290.31
2022-12-12T12:05:21.725Z,100278.47
2022-12-12T12:09:40.656Z,100273.75
2022-12-12T12:14:00.768Z,100276.94
2022-12-12T12:18:41.518Z,100278.25
2022-12-12T12:23:04.972Z,100269.22
2022-12-12T12:27:38.786Z,100267.19
2022-12-12T12:32:00.773Z,100263.53
2022-12-12T12:36:23.861Z,100281.53
2022-12-12T12:40:59.465Z,100282.00
2022-12-12T12:45:00.941Z,100269.41
2022-12-12T12:49:15.110Z,100258.94
2022-12-12T12:53:36.053Z,100256.81
2022-12-12T12:57:40.249Z,100248.28
2022-12-12T13:01:49.258Z,100241.97
2022-12-12T13:06:01.124Z,100240.72
2022-12-12T13:10:16.965Z,100250.66
2022-12-12T13:14:37.979Z,100251.25
2022-12-12T13:18:45.718Z,100257.84
2022-12-12T13:23:12.918Z,100251.75
2022-12-12T13:27:26.783Z,100247.16
2022-12-12T13:31:58.225Z,100235.69
2022-12-12T13:36:29.049Z,100235.31
2022-12-12T13:40:41.373Z,100242.00
2022-12-12T13:44:48.073Z,100237.13
2022-12-12T13:49:06.523Z,100229.53
2022-12-12T13:53:08.708Z,100230.34
2022-12-12T13:57:20.886Z,100227.72
2022-12-12T14:01:27.414Z,100222.09
2022-12-12T14:05:35.849Z,100215.47
2022-12-12T14:09:49.068Z,100217.81
2022-12-12T14:13:51.545Z,100219.25
2022-12-12T14:18:00.630Z,100225.56
2022-12-12T14:22:03.122Z,100218.81
2022-12-12T14:26:23.346Z,100213.19
2022-12-12T14:30:44.699Z,100216.84
2022-12-12T14:34:58.431Z,100220.84
2022-12-12T14:39:14.946Z,100234.66
2022-12-12T14:43:25.410Z,100237.66
2022-12-12T14:47:26.931Z,100239.00
2022-12-12T14:51:33.290Z,100241.19
2022-12-12T14:55:34.907Z,100239.03
2022-12-12T14:59:38.656Z,100240.16
2022-12-12T15:03:47.002Z,100241.28
2022-12-12T15:07:58.145Z,100235.94
2022-12-12T15:12:11.617Z,100245.56
2022-12-12T15:16:13.438Z,100236.63
2022-12-12T15:20:18.765Z,100237.06
2022-12-12T15:24:23.164Z,100227.66
2022-12-12T15:28:25.241Z,100215.59
2022-12-12T15:32:28.277Z,100213.66
2022-12-12T15:36:31.866Z,100214.97
2022-12-12T15:40:35.576Z,100221.13
2022-12-12T15:44:39.250Z,100235.72
2022-12-12T15:48:45.020Z,100237.81
2022-12-12T15:53:27.665Z,100239.13
2022-12-12T15:57:34.205Z,100244.59
2022-12-12T16:01:36.025Z,100242.84
2022-12-12T16:05:39.490Z,100252.16
2022-12-12T16:09:57.709Z,100241.09
2022-12-12T16:13:59.950Z,100240.09
2022-12-12T16:18:07.970Z,100244.81
2022-12-12T16:22:28.889Z,100253.91
2022-12-12T16:26:30.426Z,100251.19
2022-12-12T16:30:32.066Z,100256.88
2022-12-12T16:34:33.606Z,100251.81
2022-12-12T16:38:35.493Z,100250.59
2022-12-12T16:42:37.434Z,100252.16
2022-12-12T16:46:38.962Z,100257.66
2022-12-12T16:50:40.608Z,100251.91
2022-12-12T16:54:46.883Z,100260.91
2022-12-12T16:58:53.349Z,100259.81
2022-12-12T17:02:55.594Z,100267.81
2022-12-12T17:06:57.594Z,100270.75
2022-12-12T17:11:10.477Z,100265.50
2022-12-12T17:15:16.869Z,100266.16
2022-12-12T17:19:18.424Z,100269.97
2022-12-12T17:23:27.631Z,100271.47
2022-12-12T17:27:29.344Z,100282.31
2022-12-12T17:31:31.587Z,100275.41
2022-12-12T17:35:33.324Z,100273.56
2022-12-12T17:39:34.938Z,100273.97
2022-12-12T17:43:37.420Z,100272.22
2022-12-12T17:47:38.975Z,100266.94
2022-12-12T17:51:40.671Z,100266.63
2022-12-12T17:55:53.078Z,100266.50
2022-12-12T17:59:58.482Z,100264.63
2022-12-12T18:04:01.216Z,100260.38
2022-12-12T18:08:02.914Z,100257.84
2022-12-12T18:12:05.131Z,100252.81
2022-12-12T18:16:08.563Z,100259.28
2022-12-12T18:20:10.474Z,100257.28
2022-12-12T18:24:12.443Z,100255.31
2022-12-12T18:28:13.991Z,100252.81
2022-12-12T18:32:15.777Z,100257.47
2022-12-12T18:36:21.084Z,100257.34
2022-12-12T18:40:22.634Z,100262.28
2022-12-12T18:44:24.186Z,100262.06
2022-12-12T18:48:25.759Z,100254.38
2022-12-12T18:52:27.311Z,100251.53
2022-12-12T18:56:31.154Z,100265.09
2022-12-12T19:00:32.665Z,100272.41
2022-12-12T19:04:34.390Z,100271.06
2022-12-12T19:08:36.757Z,100269.19
2022-12-12T19:12:38.410Z,100274.00
2022-12-12T19:16:40.006Z,100276.94
2022-12-12T19:20:41.730Z,100278.22
2022-12-12T19:24:43.314Z,100279.63
2022-12-12T19:28:45.711Z,100275.97
2022-12-12T19:32:48.986Z,100273.22
2022-12-12T19:36:52.486Z,100278.00
2022-12-12T19:40:54.957Z,100269.22
2022-12-12T19:44:56.544Z,100272.38
2022-12-12T19:49:01.266Z,100265.47
2022-12-12T19:53:03.157Z,100265.38
2022-12-12T19:57:05.059Z,100265.78
2022-12-12T20:01:07.737Z,100273.16
2022-12-12T20:05:10.109Z,100269.56
2022-12-12T20:09:14.337Z,100272.56
2022-12-12T20:13:15.879Z,100269.81
2022-12-12T20:17:17.415Z,100271.88
2022-12-12T20:21:58.678Z,100280.16
2022-12-12T20:25:42.796Z,100281.69
2022-12-12T20:29:44.556Z,100279.03
2022-12-12T20:33:46.881Z,100277.91
2022-12-12T20:37:48.742Z,100277.44
2022-12-12T20:41:50.855Z,100267.16
2022-12-12T20:45:52.563Z,100271.41
2022-12-12T20:49:54.248Z,100270.69
2022-12-12T20:53:57.287Z,100264.28
2022-12-12T20:57:59.514Z,100265.16
2022-12-12T21:02:02.331Z,100258.38
2022-12-12T21:06:14.634Z,100258.78
2022-12-12T21:10:16.292Z,100254.78
2022-12-12T21:14:17.853Z,100248.88
2022-12-12T21:18:20.263Z,100252.91
2022-12-12T21:22:21.908Z,100255.31
2022-12-12T21:26:28.948Z,100256.34
2022-12-12T21:30:30.968Z,100245.91
2022-12-12T21:34:32.682Z,100242.41
2022-12-12T21:38:34.391Z,100245.03
2022-12-12T21:42:35.907Z,100236.63
2022-12-12T21:46:41.600Z,100241.66
2022-12-12T21:50:43.319Z,100232.13
2022-12-12T21:54:44.827Z,100237.75
2022-12-12T21:58:46.451Z,100236.50
2022-12-12T22:02:50.125Z,100238.94
2022-12-12T22:06:52.071Z,100228.88
2022-12-12T22:10:54.437Z,100238.78
2022-12-12T22:14:56.222Z,100241.06
2022-12-12T22:19:02.278Z,100242.44
2022-12-12T22:23:10.234Z,100223.88
2022-12-12T22:27:11.747Z,100235.41
2022-12-12T22:31:14.044Z,100229.41
2022-12-12T22:35:15.939Z,100236.19
2022-12-12T22:39:26.701Z,100231.66
2022-12-12T22:43:29.595Z,100235.06
2022-12-12T22:47:31.092Z,100228.16
2022-12-12T22:51:33.713Z,100229.91
2022-12-12T22:55:36.244Z,100224.88
2022-12-12T22:59:37.773Z,100224.03
2022-12-12T23:03:40.064Z,100207.34
2022-12-12T23:07:41.746Z,100213.13
2022-12-12T23:11:44.505Z,100219.50
2022-12-12T23:15:46.105Z,100214.22
2022-12-12T23:19:47.691Z,100208.63
2022-12-12T23:23:50.046Z,100212.38
2022-12-12T23:27:51.608Z,100209.00
2022-12-12T23:31:54.148Z,100204.72
2022-12-12T23:35:55.716Z,100202.09
2022-12-12T23:39:57.361Z,100197.72
2022-12-12T23:43:59.088Z,100182.44
2022-12-12T23:48:02.251Z,100181.28
2022-12-12T23:52:03.956Z,100182.81
2022-12-12T23:56:05.945Z,100184.31
